Varnell, GA (30756)

11:38 AM EST on February 10, 2016 (GMT -0500)
KGADALTO11 | | Change Station
CLOSE
Current Station
Personal Weather Station
Location: Dalton, GA
Elevation: 790 ft
Nearby Weather Stations
Active Advisory: Winter Weather Advisory

Elev 790 ft 34.81 °N, 85.00 °W | Updated 8 minutes ago

Mostly Cloudy
Mostly Cloudy
26.7 °F
Feels Like 20 °F
N
6.0
Wind Variable Wind from SW
Gusts 16.0 mph

Today
High -- | Low -- °F
--% Chance of Precip.
Yesterday
High -- | Low -- °F
Precip. -- in
Pressure 30.19 in
Visibility 10.0 miles
Clouds Scattered Clouds 3500 ft
Mostly Cloudy 4000 ft
Mostly Cloudy 5000 ft
Windchill 20 °F
Dew Point 15 °F
Humidity 60%
Rainfall 0.00 in
Snow Depth Not available.
7:31 AM 6:17 PM
Waxing Crescent, 6% visible
METAR KCHA 101553Z COR 26009KT 10SM SCT035 BKN040 BKN050 M03/M12 A3017 RMK AO2 SLP223 -SHSN ALQDS T10331122
Pressure 30.19 in
Visibility 10.0 miles
Clouds Scattered Clouds 3500 ft
Mostly Cloudy 4000 ft
Mostly Cloudy 5000 ft
Windchill 20 °F
Dew Point 15 °F
Humidity 60%
Rainfall 0.00 in
Snow Depth Not available.
7:31 AM 6:17 PM
Waxing Crescent, 6% visible
METAR KCHA 101553Z COR 26009KT 10SM SCT035 BKN040 BKN050 M03/M12 A3017 RMK AO2 SLP223 -SHSN ALQDS T10331122

10-Day Weather Forecast

Almanac

Astronomy

Feb. 10, 2016 Rise Set
Actual Time
Civil Twilight
Nautical Twilight
Astronomical Twilight
Moon
Length of Visible Light
Length of Day
Tomorrow will be .
, % of the Moon is Illuminated

Today's Extremes

State Highs State Lows

Community

WunderPhotos

Upload Photos

1,891,881 photos uploaded!

WunderBlog® & News

Nearby

Air Quality

  Air Quality AQ Index Pollutant
Not available.

Snow Depth

Station Depth Elevation

Earthquake Activity

City Distance Mag. Time & Date
Minimum magnitude displayed is 2.5.

Coastal Water Temperatures

Place Temperature

Stations

Nearby Weather Stations

Station Location Temp. Windchill Dew Point Humidity Wind Precip. Elev Updated Type
                   

Watches & Warnings

Winter Weather Advisory
Issued: 11:19 AM EST Feb. 10, 2016 – National Weather Service

... Winter Weather Advisory remains in effect until 7 PM EST this
evening...

* locations... northwest Georgia.

* Hazard types... lingering snow showers and flurries with black
ice.

* Accumulations... little... if any... additional snowfall.

* Impacts... any lingering moisture on the roadways is expected
to refreeze and increase the potential for icy roads.
Secondary roads along with bridges and overpasses will be most
prone to the icy conditions.

Precautionary/preparedness actions...

A Winter Weather Advisory for snow means that periods of snow
will cause primarily travel difficulties. Be prepared for snow
covered roads and limited visibilities... and use caution while
driving.